createdAt,value
2022-10-06T00:00:04.771Z,3.90
2022-10-06T00:04:57.246Z,4.27
2022-10-06T00:09:50.011Z,4.50
2022-10-06T00:14:42.561Z,3.67
2022-10-06T00:19:36.402Z,3.83
2022-10-06T00:24:28.957Z,4.67
2022-10-06T00:29:21.648Z,4.37
2022-10-06T00:34:14.173Z,4.50
2022-10-06T00:39:08.009Z,4.10
2022-10-06T00:44:00.689Z,4.20
2022-10-06T00:48:56.694Z,4.20
2022-10-06T00:53:49.312Z,4.70
2022-10-06T00:58:43.165Z,4.60
2022-10-06T01:03:38.060Z,4.50
2022-10-06T01:08:32.302Z,4.60
2022-10-06T01:13:25.668Z,4.70
2022-10-06T01:18:21.437Z,4.60
2022-10-06T01:23:15.279Z,4.90
2022-10-06T01:28:09.078Z,5.20
2022-10-06T01:33:01.750Z,5.23
2022-10-06T01:37:58.691Z,5.53
2022-10-06T01:42:53.561Z,5.60
2022-10-06T01:47:46.113Z,6.80
2022-10-06T01:52:39.003Z,8.20
2022-10-06T01:57:31.634Z,8.37
2022-10-06T02:02:25.745Z,8.10
2022-10-06T02:07:18.279Z,6.23
2022-10-06T02:12:12.447Z,6.17
2022-10-06T02:17:07.266Z,5.93
2022-10-06T02:22:01.130Z,6.50
2022-10-06T02:26:54.004Z,6.10
2022-10-06T02:31:46.849Z,6.60
2022-10-06T02:36:39.866Z,6.83
2022-10-06T02:41:34.013Z,8.00
2022-10-06T02:46:26.961Z,7.00
2022-10-06T02:51:21.011Z,7.03
2022-10-06T02:56:16.094Z,7.30
2022-10-06T03:01:11.648Z,7.00
2022-10-06T03:06:05.250Z,6.20
2022-10-06T03:11:03.155Z,6.07
2022-10-06T03:15:55.749Z,5.60
2022-10-06T03:20:50.137Z,6.53
2022-10-06T03:25:42.897Z,6.00
2022-10-06T03:30:37.181Z,6.00
2022-10-06T03:35:30.815Z,6.33
2022-10-06T03:40:25.801Z,6.10
2022-10-06T03:45:18.430Z,6.07
2022-10-06T03:50:11.203Z,6.30
2022-10-06T03:55:04.009Z,5.73
2022-10-06T03:59:59.842Z,6.00
2022-10-06T04:04:52.567Z,5.43
2022-10-06T04:09:45.204Z,6.50
2022-10-06T04:14:38.795Z,5.60
2022-10-06T04:19:34.780Z,5.80
2022-10-06T04:24:28.290Z,5.80
2022-10-06T04:29:22.102Z,6.47
2022-10-06T04:34:19.491Z,6.57
2022-10-06T04:39:13.857Z,5.73
2022-10-06T04:44:10.323Z,7.20
2022-10-06T04:49:05.572Z,7.13
2022-10-06T04:53:59.805Z,7.13
2022-10-06T04:58:55.794Z,7.20
2022-10-06T05:03:49.170Z,7.50
2022-10-06T05:08:43.159Z,7.00
2022-10-06T05:13:37.378Z,7.20
2022-10-06T05:18:35.706Z,6.77
2022-10-06T05:23:29.672Z,7.60
2022-10-06T05:28:23.166Z,6.87
2022-10-06T05:33:16.024Z,7.20
2022-10-06T05:38:11.687Z,7.53
2022-10-06T05:43:04.586Z,6.57
2022-10-06T05:47:57.458Z,6.90
2022-10-06T05:52:50.999Z,6.63
2022-10-06T05:57:44.960Z,6.80
2022-10-06T06:02:37.613Z,6.60
2022-10-06T06:07:30.460Z,6.10
2022-10-06T06:12:23.196Z,6.47
2022-10-06T06:17:20.484Z,6.37
2022-10-06T06:22:13.216Z,5.30
2022-10-06T06:27:08.648Z,5.83
2022-10-06T06:32:01.353Z,5.70
2022-10-06T06:37:03.579Z,4.70
2022-10-06T06:42:02.021Z,4.50
2022-10-06T06:47:23.159Z,4.83
2022-10-06T06:52:20.859Z,4.93
2022-10-06T06:57:13.886Z,5.20
2022-10-06T07:02:07.067Z,4.77
2022-10-06T07:07:03.725Z,3.90
2022-10-06T07:12:01.539Z,4.10
2022-10-06T07:17:13.081Z,3.60
2022-10-06T07:22:32.173Z,2.97
2022-10-06T07:27:28.733Z,2.33
2022-10-06T07:32:21.588Z,2.23
2022-10-06T07:37:14.536Z,2.60
2022-10-06T07:42:07.598Z,2.20
2022-10-06T07:47:02.558Z,2.40
2022-10-06T07:52:16.676Z,2.30
2022-10-06T07:57:09.628Z,2.30
2022-10-06T08:02:03.638Z,2.40
2022-10-06T08:06:58.421Z,2.40
2022-10-06T08:11:50.999Z,2.50
2022-10-06T08:16:43.543Z,2.67
2022-10-06T08:21:39.581Z,2.07
2022-10-06T08:26:33.204Z,2.00
2022-10-06T08:31:25.944Z,1.90
2022-10-06T08:36:20.137Z,2.07
2022-10-06T08:41:19.403Z,2.23
2022-10-06T08:46:14.514Z,2.27
2022-10-06T08:51:09.826Z,2.00
2022-10-06T08:56:07.097Z,2.93
2022-10-06T09:01:03.702Z,2.67
2022-10-06T09:05:59.493Z,2.00
2022-10-06T09:10:58.623Z,2.97
2022-10-06T09:15:55.026Z,2.90
2022-10-06T09:20:52.977Z,1.83
2022-10-06T09:25:45.476Z,1.83
2022-10-06T09:30:38.307Z,2.00
2022-10-06T09:35:32.131Z,2.23
2022-10-06T09:40:35.993Z,2.20
2022-10-06T09:45:29.072Z,2.10
2022-10-06T09:50:23.273Z,2.37
2022-10-06T09:55:17.126Z,2.60
2022-10-06T10:00:26.374Z,1.83
2022-10-06T10:05:21.658Z,2.20
2022-10-06T10:10:19.596Z,2.33
2022-10-06T10:15:25.422Z,2.27
2022-10-06T10:20:28.214Z,1.87
2022-10-06T10:25:27.918Z,1.80
2022-10-06T10:30:20.469Z,1.90
2022-10-06T10:35:22.071Z,2.20
2022-10-06T10:40:24.171Z,2.10
2022-10-06T10:45:19.287Z,1.90
2022-10-06T10:50:17.920Z,1.70
2022-10-06T10:55:18.554Z,1.80
2022-10-06T11:00:17.417Z,2.00
2022-10-06T11:05:15.267Z,1.73
2022-10-06T11:10:12.072Z,1.90
2022-10-06T11:15:07.471Z,2.30
2022-10-06T11:20:05.855Z,2.00
2022-10-06T11:25:03.317Z,2.20
2022-10-06T11:30:01.793Z,2.13
2022-10-06T11:34:55.081Z,1.97
2022-10-06T11:39:52.737Z,1.97
2022-10-06T11:44:46.541Z,1.90
2022-10-06T11:49:51.958Z,1.90
2022-10-06T11:54:46.634Z,2.00
2022-10-06T11:59:40.606Z,2.13
2022-10-06T12:04:33.104Z,2.17
2022-10-06T12:09:31.075Z,1.97
2022-10-06T12:16:00.163Z,2.30
2022-10-06T12:19:46.555Z,1.87
2022-10-06T12:24:41.384Z,2.07
2022-10-06T12:29:39.089Z,2.47
2022-10-06T12:34:49.471Z,2.30
2022-10-06T12:39:44.131Z,2.30
2022-10-06T12:44:38.335Z,2.27
2022-10-06T12:49:44.106Z,2.17
2022-10-06T12:54:38.642Z,2.37
2022-10-06T12:59:33.827Z,1.80
2022-10-06T13:04:49.289Z,2.10
2022-10-06T13:09:41.943Z,1.90
2022-10-06T13:14:36.631Z,2.20
2022-10-06T13:19:29.971Z,2.00
2022-10-06T13:24:23.841Z,2.30
2022-10-06T13:29:19.146Z,2.40
2022-10-06T13:34:13.974Z,2.40
2022-10-06T13:39:06.981Z,2.40
2022-10-06T13:44:01.178Z,2.23
2022-10-06T13:48:55.945Z,2.17
2022-10-06T13:53:50.066Z,1.97
2022-10-06T13:58:42.614Z,2.43
2022-10-06T14:08:33.337Z,2.63
2022-10-06T14:13:28.638Z,2.30
2022-10-06T14:18:23.161Z,2.50
2022-10-06T14:23:34.849Z,2.70
2022-10-06T14:28:28.773Z,2.23
2022-10-06T14:33:21.375Z,2.30
2022-10-06T14:38:13.919Z,2.10
2022-10-06T14:43:06.438Z,2.10
2022-10-06T14:48:00.405Z,1.83
2022-10-06T14:52:52.979Z,2.00
2022-10-06T14:57:45.532Z,2.17
2022-10-06T15:02:38.121Z,2.20
2022-10-06T15:07:49.725Z,2.30
2022-10-06T15:12:42.254Z,2.10
2022-10-06T15:17:35.249Z,2.40
2022-10-06T15:22:27.829Z,2.10
2022-10-06T15:27:39.037Z,2.43
2022-10-06T15:32:31.574Z,2.07
2022-10-06T15:37:24.542Z,2.20
2022-10-06T15:42:18.733Z,2.13
2022-10-06T15:47:12.772Z,2.40
2022-10-06T15:52:06.052Z,2.30
2022-10-06T15:56:59.490Z,2.40
2022-10-06T16:01:55.738Z,2.70
2022-10-06T16:06:55.347Z,2.20
2022-10-06T16:11:48.024Z,2.20
2022-10-06T16:16:43.651Z,2.30
2022-10-06T16:21:36.531Z,2.33
2022-10-06T16:26:30.437Z,2.60
2022-10-06T16:31:23.082Z,2.60
2022-10-06T16:36:17.234Z,9.57
2022-10-06T16:41:10.173Z,4.50
2022-10-06T16:46:04.863Z,8.60
2022-10-06T16:51:04.746Z,5.90
2022-10-06T16:55:57.251Z,2.70
2022-10-06T17:00:56.775Z,3.00
2022-10-06T17:05:50.660Z,3.10
2022-10-06T17:10:43.198Z,3.00
2022-10-06T17:15:35.697Z,2.90
2022-10-06T17:20:28.193Z,2.93
2022-10-06T17:25:22.153Z,3.53
2022-10-06T17:30:16.672Z,3.80
2022-10-06T17:35:09.303Z,3.93
2022-10-06T17:40:01.817Z,3.67
2022-10-06T17:44:55.871Z,3.40
2022-10-06T17:49:48.372Z,4.00
2022-10-06T17:54:41.466Z,4.00
2022-10-06T17:59:33.981Z,3.33
2022-10-06T18:04:28.948Z,5.07
2022-10-06T18:09:21.702Z,5.00
2022-10-06T18:14:14.784Z,4.10
2022-10-06T18:19:08.154Z,4.80
2022-10-06T18:24:02.162Z,5.10
2022-10-06T18:28:54.868Z,5.40
2022-10-06T18:39:03.545Z,5.80
2022-10-06T18:43:56.438Z,5.80
2022-10-06T18:48:59.334Z,5.97
2022-10-06T18:53:54.038Z,6.60
2022-10-06T18:58:48.126Z,7.13
2022-10-06T19:03:40.946Z,6.40
2022-10-06T19:08:34.068Z,6.00
2022-10-06T19:13:26.572Z,7.67
2022-10-06T19:18:20.462Z,7.50
2022-10-06T19:23:14.314Z,10.20
2022-10-06T19:28:06.940Z,9.70
2022-10-06T19:32:59.502Z,7.83
2022-10-06T19:37:53.420Z,6.93
2022-10-06T19:42:48.653Z,7.47
2022-10-06T19:47:41.627Z,6.80
2022-10-06T19:52:34.617Z,7.20
2022-10-06T19:57:29.279Z,7.40
2022-10-06T20:02:21.801Z,7.70
2022-10-06T20:07:14.325Z,7.50
2022-10-06T20:12:06.874Z,7.00
2022-10-06T20:17:01.425Z,7.50
2022-10-06T20:21:54.028Z,7.33
2022-10-06T20:26:47.934Z,7.43
2022-10-06T20:31:42.294Z,9.17
2022-10-06T20:36:37.009Z,10.10
2022-10-06T20:41:29.676Z,9.90
2022-10-06T20:46:22.292Z,8.33
2022-10-06T20:51:15.378Z,7.67
2022-10-06T20:56:09.653Z,9.30
2022-10-06T21:01:06.171Z,6.67
2022-10-06T21:05:58.968Z,5.17
2022-10-06T21:10:56.265Z,5.50
2022-10-06T21:15:50.529Z,4.70
2022-10-06T21:20:45.307Z,5.40
2022-10-06T21:25:38.476Z,5.00
2022-10-06T21:30:32.376Z,6.20
2022-10-06T21:35:27.096Z,5.20
2022-10-06T21:40:19.752Z,4.67
2022-10-06T21:45:12.382Z,5.33
2022-10-06T21:50:05.251Z,4.93
2022-10-06T21:54:59.275Z,5.70
2022-10-06T21:59:51.928Z,5.67
2022-10-06T22:04:44.610Z,5.57
2022-10-06T22:09:37.259Z,5.80
2022-10-06T22:14:31.277Z,5.60
2022-10-06T22:19:23.945Z,6.23
2022-10-06T22:24:17.317Z,6.80
2022-10-06T22:29:11.321Z,6.43
2022-10-06T22:34:05.716Z,5.23
2022-10-06T22:38:58.529Z,6.00
2022-10-06T22:43:57.327Z,5.00
2022-10-06T22:48:50.072Z,5.07
2022-10-06T22:53:44.065Z,4.90
2022-10-06T22:58:36.912Z,4.47
2022-10-06T23:03:29.622Z,5.13
2022-10-06T23:08:22.296Z,4.50
2022-10-06T23:13:16.284Z,4.60
2022-10-06T23:18:08.990Z,5.47
2022-10-06T23:23:01.745Z,4.70
2022-10-06T23:27:54.439Z,5.00
2022-10-06T23:32:48.456Z,4.80
2022-10-06T23:37:41.484Z,5.47
2022-10-06T23:42:34.580Z,5.10
2022-10-06T23:47:27.233Z,4.57
2022-10-06T23:52:21.252Z,4.80
2022-10-06T23:57:13.939Z,5.40
